createdAt,value
2017-08-28T00:02:22.263Z,93.90
2017-08-28T00:04:49.835Z,94.00
2017-08-28T00:07:17.555Z,94.30
2017-08-28T00:09:45.057Z,94.50
2017-08-28T00:12:12.622Z,94.70
2017-08-28T00:14:40.984Z,94.90
2017-08-28T00:17:08.513Z,95.00
2017-08-28T00:19:36.060Z,95.20
2017-08-28T00:22:03.676Z,95.50
2017-08-28T00:24:31.258Z,95.70
2017-08-28T00:26:58.822Z,95.80
2017-08-28T00:29:26.409Z,95.80
2017-08-28T00:31:53.972Z,95.80
2017-08-28T00:34:21.555Z,95.80
2017-08-28T00:36:49.093Z,95.70
2017-08-28T00:39:16.683Z,95.50
2017-08-28T00:41:44.215Z,95.40
2017-08-28T00:44:11.747Z,95.30
2017-08-28T00:46:39.329Z,95.40
2017-08-28T00:49:06.840Z,95.30
2017-08-28T00:51:34.443Z,95.30
2017-08-28T00:54:01.983Z,95.30
2017-08-28T00:56:29.560Z,95.40
2017-08-28T00:58:57.301Z,95.70
2017-08-28T01:01:24.851Z,95.70
2017-08-28T01:03:52.370Z,95.80
2017-08-28T01:06:19.932Z,95.90
2017-08-28T01:08:47.526Z,95.90
2017-08-28T01:11:15.073Z,95.80
2017-08-28T01:13:42.656Z,95.70
2017-08-28T01:16:10.200Z,96.10
2017-08-28T01:18:37.736Z,95.90
2017-08-28T01:21:05.326Z,96.10
2017-08-28T01:23:32.848Z,95.80
2017-08-28T01:26:00.421Z,95.70
2017-08-28T01:28:28.017Z,95.70
2017-08-28T01:30:55.576Z,95.70
2017-08-28T01:33:23.132Z,95.70
2017-08-28T01:35:50.848Z,95.90
2017-08-28T01:38:18.395Z,95.90
2017-08-28T01:40:45.936Z,96.00
2017-08-28T01:43:13.536Z,95.90
2017-08-28T01:45:41.091Z,95.90
2017-08-28T01:48:08.613Z,95.90
2017-08-28T01:50:36.245Z,95.80
2017-08-28T01:53:03.761Z,95.70
2017-08-28T01:55:31.343Z,95.70
2017-08-28T01:57:59.104Z,95.80
2017-08-28T02:00:26.632Z,96.20
2017-08-28T02:02:54.179Z,96.10
2017-08-28T02:05:21.743Z,95.90
2017-08-28T02:07:49.312Z,95.70
2017-08-28T02:10:16.884Z,96.10
2017-08-28T02:12:44.486Z,96.20
2017-08-28T02:15:12.026Z,96.30
2017-08-28T02:17:39.588Z,96.40
2017-08-28T02:20:07.207Z,96.40
2017-08-28T02:22:34.696Z,96.90
2017-08-28T02:25:02.295Z,97.20
2017-08-28T02:27:30.040Z,97.10
2017-08-28T02:29:57.602Z,97.00
2017-08-28T02:32:25.149Z,96.60
2017-08-28T02:34:52.921Z,96.20
2017-08-28T02:37:20.485Z,96.40
2017-08-28T02:39:48.019Z,96.30
2017-08-28T02:42:15.581Z,96.20
2017-08-28T02:44:43.133Z,96.40
2017-08-28T02:47:10.666Z,96.20
2017-08-28T02:49:38.196Z,96.50
2017-08-28T02:52:05.770Z,96.30
2017-08-28T02:54:33.289Z,96.20
2017-08-28T02:57:01.452Z,96.00
2017-08-28T02:59:29.020Z,96.00
2017-08-28T03:01:57.485Z,96.40
2017-08-28T03:04:25.021Z,96.60
2017-08-28T03:06:53.502Z,96.40
2017-08-28T03:09:21.029Z,96.10
2017-08-28T03:11:48.601Z,96.10
2017-08-28T03:14:16.135Z,96.20
2017-08-28T03:16:43.660Z,96.10
2017-08-28T03:19:11.221Z,96.20
2017-08-28T03:21:38.758Z,96.10
2017-08-28T03:24:06.308Z,96.00
2017-08-28T03:26:33.918Z,96.00
2017-08-28T03:29:01.466Z,96.00
2017-08-28T03:31:28.977Z,96.40
2017-08-28T03:33:56.503Z,96.50
2017-08-28T03:36:24.089Z,96.40
2017-08-28T03:38:51.643Z,96.30
2017-08-28T03:41:19.279Z,96.50
2017-08-28T03:43:46.859Z,96.50
2017-08-28T03:46:14.460Z,96.50
2017-08-28T03:48:42.096Z,96.40
2017-08-28T03:51:09.674Z,96.30
2017-08-28T03:53:37.223Z,96.20
2017-08-28T03:56:05.032Z,96.30
2017-08-28T03:58:32.855Z,96.40
2017-08-28T04:01:00.411Z,96.50
2017-08-28T04:03:28.007Z,96.30
2017-08-28T04:05:55.543Z,96.30
2017-08-28T04:08:23.101Z,96.30
2017-08-28T04:10:50.715Z,96.30
2017-08-28T04:13:18.530Z,96.40
2017-08-28T04:15:46.085Z,96.50
2017-08-28T04:18:13.824Z,96.50
2017-08-28T04:20:41.361Z,97.00
2017-08-28T04:23:08.896Z,97.20
2017-08-28T04:25:36.451Z,96.60
2017-08-28T04:28:04.041Z,96.30
2017-08-28T04:30:32.388Z,96.10
2017-08-28T04:32:59.979Z,96.00
2017-08-28T04:35:27.536Z,95.80
2017-08-28T04:37:55.108Z,95.50
2017-08-28T04:40:22.682Z,95.20
2017-08-28T04:42:50.187Z,94.70
2017-08-28T04:45:17.796Z,94.20
2017-08-28T04:47:45.369Z,94.20
2017-08-28T04:50:12.924Z,93.70
2017-08-28T04:55:30.821Z,90.00
2017-08-28T04:57:58.372Z,83.70
2017-08-28T05:00:26.109Z,78.60
2017-08-28T05:02:53.673Z,76.10
2017-08-28T05:05:22.054Z,74.90
2017-08-28T05:07:49.643Z,72.40
2017-08-28T05:10:17.182Z,70.00
2017-08-28T05:12:44.727Z,66.60
2017-08-28T05:15:12.364Z,64.70
2017-08-28T05:17:39.913Z,61.30
2017-08-28T05:20:07.415Z,59.40
2017-08-28T05:22:35.013Z,57.00
2017-08-28T05:25:02.586Z,55.10
2017-08-28T05:27:30.092Z,52.70
2017-08-28T05:29:57.788Z,52.20
2017-08-28T05:32:25.348Z,51.80
2017-08-28T05:34:52.847Z,51.00
2017-08-28T05:37:20.467Z,50.10
2017-08-28T05:39:48.019Z,49.80
2017-08-28T05:42:15.514Z,49.10
2017-08-28T05:44:43.069Z,48.20
2017-08-28T05:47:10.619Z,47.30
2017-08-28T05:49:38.184Z,46.80
2017-08-28T05:52:05.876Z,45.60
2017-08-28T05:54:33.438Z,45.50
2017-08-28T05:57:00.942Z,45.20
2017-08-28T05:59:28.479Z,44.30
2017-08-28T06:01:56.069Z,43.40
2017-08-28T06:04:23.679Z,41.90
2017-08-28T06:06:51.450Z,41.90
2017-08-28T06:09:19.001Z,41.60
2017-08-28T06:11:46.558Z,41.20
2017-08-28T06:14:14.156Z,40.80
2017-08-28T06:16:41.704Z,39.60
2017-08-28T06:19:09.281Z,39.70
2017-08-28T06:24:29.550Z,41.00
2017-08-28T06:26:57.769Z,40.70
2017-08-28T06:29:25.317Z,40.50
2017-08-28T06:31:52.878Z,40.80
2017-08-28T06:34:20.507Z,39.40
2017-08-28T06:36:48.063Z,38.80
2017-08-28T06:39:15.607Z,36.90
2017-08-28T06:41:43.150Z,38.80
2017-08-28T06:44:10.723Z,41.60
2017-08-28T06:46:38.312Z,39.20
2017-08-28T06:49:06.041Z,38.50
2017-08-28T06:51:34.336Z,37.80
2017-08-28T06:54:01.893Z,37.70
2017-08-28T06:56:29.479Z,35.90
2017-08-28T06:58:57.057Z,35.10
2017-08-28T07:01:24.582Z,32.60
2017-08-28T07:03:52.162Z,32.10
2017-08-28T07:06:19.724Z,30.90
2017-08-28T07:08:47.486Z,30.00
2017-08-28T07:11:15.056Z,28.90
2017-08-28T07:13:43.584Z,28.90
2017-08-28T07:16:17.078Z,29.00
2017-08-28T07:18:44.670Z,29.50
2017-08-28T07:21:12.239Z,28.30
2017-08-28T07:23:39.819Z,28.80
2017-08-28T07:26:07.322Z,28.90
2017-08-28T07:28:34.859Z,27.50
2017-08-28T07:31:02.465Z,26.20
2017-08-28T07:33:30.021Z,27.80
2017-08-28T07:35:57.595Z,29.00
2017-08-28T07:38:25.131Z,29.70
2017-08-28T07:40:52.675Z,26.70
2017-08-28T07:43:20.236Z,27.80
2017-08-28T07:45:48.652Z,27.70
2017-08-28T07:48:16.198Z,27.70
2017-08-28T07:50:43.757Z,27.10
2017-08-28T07:53:11.345Z,26.30
2017-08-28T07:55:39.747Z,24.90
2017-08-28T07:58:07.264Z,24.20
2017-08-28T08:00:34.872Z,22.70
2017-08-28T08:03:02.424Z,22.40
2017-08-28T08:05:29.938Z,23.70
2017-08-28T08:07:57.555Z,23.90
2017-08-28T08:10:25.212Z,23.70
2017-08-28T08:12:52.755Z,23.40
2017-08-28T08:15:20.307Z,24.10
2017-08-28T08:17:47.795Z,25.10
2017-08-28T08:20:15.426Z,25.00
2017-08-28T08:22:42.969Z,25.10
2017-08-28T08:25:10.511Z,24.60
2017-08-28T08:27:38.066Z,23.60
2017-08-28T08:30:05.662Z,24.10
2017-08-28T08:32:33.186Z,27.30
2017-08-28T08:35:00.738Z,29.20
2017-08-28T08:37:28.336Z,29.30
2017-08-28T08:39:55.868Z,31.50
2017-08-28T08:42:24.193Z,30.00
2017-08-28T08:44:51.799Z,30.00
2017-08-28T08:47:20.028Z,32.90
2017-08-28T08:49:47.535Z,30.00
2017-08-28T08:52:15.134Z,29.40
2017-08-28T08:54:42.728Z,27.70
2017-08-28T08:57:10.270Z,29.90
2017-08-28T08:59:38.047Z,28.80
2017-08-28T09:02:05.566Z,27.70
2017-08-28T09:04:33.105Z,25.90
2017-08-28T09:07:00.848Z,25.70
2017-08-28T09:09:28.459Z,27.70
2017-08-28T09:11:55.984Z,28.00
2017-08-28T09:14:23.655Z,25.00
2017-08-28T09:16:51.202Z,24.00
2017-08-28T09:19:18.844Z,23.70
2017-08-28T09:21:46.577Z,22.70
2017-08-28T09:24:14.160Z,24.40
2017-08-28T09:26:41.768Z,24.00
2017-08-28T09:29:09.597Z,27.00
2017-08-28T09:31:37.929Z,36.90
2017-08-28T09:34:05.438Z,36.90
2017-08-28T09:36:33.989Z,40.80
2017-08-28T09:39:01.488Z,40.80
2017-08-28T09:41:29.047Z,43.30
2017-08-28T09:43:56.627Z,43.70
2017-08-28T09:46:24.208Z,46.80
2017-08-28T09:48:51.766Z,48.80
2017-08-28T09:51:19.366Z,48.10
2017-08-28T09:53:46.886Z,48.20
2017-08-28T09:56:14.394Z,47.70
2017-08-28T09:58:42.014Z,47.90
2017-08-28T10:01:09.515Z,47.90
2017-08-28T10:03:37.085Z,47.00
2017-08-28T10:06:04.693Z,47.20
2017-08-28T10:08:32.295Z,40.20
2017-08-28T10:10:59.861Z,35.70
2017-08-28T10:13:27.492Z,31.10
2017-08-28T10:15:55.034Z,27.90
2017-08-28T10:18:22.625Z,26.20
2017-08-28T10:20:50.172Z,25.10
2017-08-28T10:31:50.275Z,37.90
2017-08-28T10:34:17.842Z,37.90
2017-08-28T10:36:45.396Z,39.60
2017-08-28T10:39:12.978Z,42.40
2017-08-28T10:41:40.493Z,44.70
2017-08-28T10:44:08.068Z,43.00
2017-08-28T10:46:35.821Z,41.70
2017-08-28T10:49:03.495Z,44.30
2017-08-28T10:51:31.063Z,43.60
2017-08-28T10:53:58.679Z,43.60
2017-08-28T10:56:26.258Z,39.60
2017-08-28T10:58:53.822Z,36.50
2017-08-28T11:01:21.435Z,33.90
2017-08-28T11:03:49.071Z,32.40
2017-08-28T11:06:16.652Z,30.00
2017-08-28T11:08:44.243Z,28.70
2017-08-28T11:11:11.763Z,27.10
2017-08-28T11:13:39.314Z,26.70
2017-08-28T11:16:06.948Z,25.50
2017-08-28T11:18:34.515Z,27.60
2017-08-28T11:21:02.188Z,28.30
2017-08-28T11:23:29.974Z,27.80
2017-08-28T11:25:57.599Z,27.30
2017-08-28T11:28:25.227Z,26.10
2017-08-28T11:30:52.876Z,26.00
2017-08-28T11:33:20.624Z,26.20
2017-08-28T11:35:48.145Z,31.50
2017-08-28T11:38:15.754Z,37.20
2017-08-28T11:40:43.326Z,39.40
2017-08-28T11:43:10.836Z,42.60
2017-08-28T11:45:38.729Z,44.40
2017-08-28T11:48:06.292Z,45.20
2017-08-28T11:50:33.941Z,45.60
2017-08-28T11:53:01.584Z,41.80
2017-08-28T11:55:29.165Z,43.20
2017-08-28T11:57:56.669Z,44.40
2017-08-28T12:00:24.252Z,42.60
2017-08-28T12:02:51.792Z,37.00
2017-08-28T12:05:19.344Z,37.30
2017-08-28T12:07:46.926Z,39.80
2017-08-28T12:10:14.481Z,40.00
2017-08-28T12:12:42.054Z,37.90
2017-08-28T12:15:09.624Z,38.60
2017-08-28T12:17:37.188Z,41.00
2017-08-28T12:20:04.802Z,40.70
2017-08-28T12:22:32.381Z,38.20
2017-08-28T12:24:59.926Z,39.00
2017-08-28T12:27:27.491Z,41.10
2017-08-28T12:29:55.147Z,42.50
2017-08-28T12:32:22.666Z,40.90
2017-08-28T12:34:50.200Z,42.60
2017-08-28T12:37:18.031Z,43.20
2017-08-28T12:39:45.625Z,42.10
2017-08-28T12:42:13.132Z,43.00
2017-08-28T12:44:40.765Z,44.30
2017-08-28T12:47:08.397Z,42.80
2017-08-28T12:49:36.004Z,43.20
2017-08-28T12:52:03.639Z,45.40
2017-08-28T12:54:31.238Z,44.30
2017-08-28T12:56:59.713Z,43.40
2017-08-28T12:59:27.418Z,44.70
2017-08-28T13:01:54.961Z,41.90
2017-08-28T13:04:22.464Z,42.50
2017-08-28T13:06:50.094Z,43.60
2017-08-28T13:09:17.856Z,42.60
2017-08-28T13:11:45.464Z,40.30
2017-08-28T13:14:13.096Z,40.70
2017-08-28T13:16:40.684Z,42.70
2017-08-28T13:19:08.284Z,40.30
2017-08-28T13:21:36.052Z,42.50
2017-08-28T13:24:03.684Z,41.70
2017-08-28T13:26:31.285Z,41.50
2017-08-28T13:28:59.351Z,45.20
2017-08-28T13:31:26.984Z,46.00
2017-08-28T13:33:54.609Z,44.80
2017-08-28T13:36:22.214Z,45.60
2017-08-28T13:38:49.806Z,44.30
2017-08-28T13:41:17.335Z,42.90
2017-08-28T13:43:45.129Z,44.10
2017-08-28T13:46:12.668Z,46.00
2017-08-28T13:48:40.264Z,47.40
2017-08-28T13:51:07.823Z,46.70
2017-08-28T13:53:36.621Z,45.10
2017-08-28T13:56:04.206Z,44.60
2017-08-28T13:58:31.874Z,45.50
2017-08-28T14:00:59.459Z,45.90
2017-08-28T14:03:27.124Z,45.30
2017-08-28T14:05:54.773Z,43.40
2017-08-28T14:08:22.461Z,43.40
2017-08-28T14:10:50.111Z,44.30
2017-08-28T14:13:17.855Z,46.30
2017-08-28T14:15:45.529Z,47.20
2017-08-28T14:18:13.241Z,48.60
2017-08-28T14:23:14.987Z,48.90
2017-08-28T14:25:42.663Z,50.30
2017-08-28T14:28:11.274Z,48.90
2017-08-28T14:30:38.889Z,50.20
2017-08-28T14:33:06.638Z,46.80
2017-08-28T14:35:34.220Z,45.50
2017-08-28T14:38:01.753Z,44.60
2017-08-28T14:40:29.796Z,42.50
2017-08-28T14:42:57.419Z,41.90
2017-08-28T14:45:25.020Z,41.80
2017-08-28T14:47:53.650Z,41.10
2017-08-28T14:50:21.349Z,42.30
2017-08-28T14:52:48.999Z,42.50
2017-08-28T14:55:16.628Z,42.20
2017-08-28T14:57:44.245Z,44.10
2017-08-28T15:00:11.905Z,46.30
2017-08-28T15:02:39.667Z,46.10
2017-08-28T15:05:08.050Z,50.70
2017-08-28T15:07:36.357Z,50.10
2017-08-28T15:10:03.984Z,50.10
2017-08-28T15:12:31.600Z,51.60
2017-08-28T15:14:59.222Z,50.10
2017-08-28T15:17:26.858Z,49.90
2017-08-28T15:19:55.559Z,50.10
2017-08-28T15:22:23.188Z,54.10
2017-08-28T15:24:50.776Z,53.20
2017-08-28T15:27:18.360Z,51.80
2017-08-28T15:29:45.904Z,51.90
2017-08-28T15:32:13.473Z,47.40
2017-08-28T15:34:41.116Z,53.50
2017-08-28T15:37:08.676Z,52.40
2017-08-28T15:39:36.476Z,49.80
2017-08-28T15:42:04.864Z,45.90
2017-08-28T15:44:42.731Z,45.30
2017-08-28T15:47:14.777Z,47.10
2017-08-28T15:49:42.690Z,45.70
2017-08-28T15:52:11.533Z,46.40
2017-08-28T15:54:39.243Z,47.60
2017-08-28T15:57:06.925Z,47.50
2017-08-28T15:59:34.521Z,48.30
2017-08-28T16:02:02.084Z,50.30
2017-08-28T16:04:29.847Z,52.40
2017-08-28T16:06:57.401Z,53.90
2017-08-28T16:09:24.967Z,53.60
2017-08-28T16:11:52.697Z,57.20
2017-08-28T16:14:21.144Z,57.20
2017-08-28T16:16:48.801Z,55.20
2017-08-28T16:19:16.435Z,59.10
2017-08-28T16:21:44.063Z,61.40
2017-08-28T16:24:12.367Z,61.60
2017-08-28T16:26:40.156Z,63.50
2017-08-28T16:29:08.517Z,66.60
2017-08-28T16:31:36.280Z,66.40
2017-08-28T16:34:03.916Z,64.60
2017-08-28T16:36:31.571Z,67.90
2017-08-28T16:38:59.157Z,68.20
2017-08-28T16:41:26.775Z,69.00
2017-08-28T16:43:54.855Z,68.80
2017-08-28T16:46:23.540Z,69.80
2017-08-28T16:48:51.434Z,69.20
2017-08-28T16:51:19.545Z,69.10
2017-08-28T16:53:47.990Z,69.50
2017-08-28T16:56:15.645Z,69.50
2017-08-28T16:58:43.308Z,69.40
2017-08-28T17:01:11.716Z,68.20
2017-08-28T17:03:39.332Z,68.00
2017-08-28T17:06:06.949Z,65.50
2017-08-28T17:08:35.461Z,63.90
2017-08-28T17:11:06.028Z,65.70
2017-08-28T17:13:33.687Z,65.80
2017-08-28T17:16:01.641Z,66.20
2017-08-28T17:18:29.401Z,66.30
2017-08-28T17:20:57.782Z,66.80
2017-08-28T17:23:25.473Z,68.50
2017-08-28T17:25:53.258Z,70.80
2017-08-28T17:28:21.816Z,71.60
2017-08-28T17:30:49.425Z,73.10
2017-08-28T17:33:17.237Z,76.10
2017-08-28T17:35:44.952Z,77.70
2017-08-28T17:38:12.724Z,79.20
2017-08-28T17:40:42.561Z,79.40
2017-08-28T17:43:11.093Z,81.00
2017-08-28T17:45:38.933Z,81.90
2017-08-28T17:48:07.724Z,83.30
2017-08-28T17:50:36.385Z,85.00
2017-08-28T17:53:06.079Z,86.50
2017-08-28T17:55:34.373Z,87.50
2017-08-28T17:58:02.079Z,88.30
2017-08-28T18:00:29.785Z,89.20
2017-08-28T18:02:57.758Z,90.10
2017-08-28T18:05:25.438Z,90.60
2017-08-28T18:07:53.073Z,91.60
2017-08-28T18:10:20.896Z,92.20
2017-08-28T18:12:48.577Z,92.10
2017-08-28T18:15:16.408Z,92.60
2017-08-28T18:17:44.205Z,92.90
2017-08-28T18:20:12.751Z,93.00
2017-08-28T18:22:42.454Z,92.90
2017-08-28T18:25:10.308Z,93.00
2017-08-28T18:30:31.655Z,93.60
2017-08-28T18:32:59.335Z,93.90
2017-08-28T18:35:27.228Z,94.00
2017-08-28T18:37:55.038Z,94.30
2017-08-28T18:40:22.839Z,94.20
2017-08-28T18:42:50.597Z,94.20
2017-08-28T18:45:20.537Z,94.20
2017-08-28T18:47:49.002Z,94.30
2017-08-28T18:50:17.104Z,94.40
2017-08-28T18:52:45.019Z,94.50
2017-08-28T18:55:13.642Z,94.80
2017-08-28T18:57:42.487Z,94.90
2017-08-28T19:00:10.445Z,94.70
2017-08-28T19:02:38.229Z,94.70
2017-08-28T19:05:06.034Z,94.50
2017-08-28T19:07:34.492Z,94.50
2017-08-28T19:10:02.527Z,94.80
2017-08-28T19:12:30.689Z,94.90
2017-08-28T19:14:59.228Z,95.10
2017-08-28T19:17:28.435Z,95.10
2017-08-28T19:19:57.122Z,95.20
2017-08-28T19:22:25.566Z,95.40
2017-08-28T19:24:53.237Z,95.70
2017-08-28T19:27:21.294Z,95.70
2017-08-28T19:29:50.221Z,95.70
2017-08-28T19:32:23.193Z,95.70
2017-08-28T19:34:52.542Z,95.80
2017-08-28T19:37:20.477Z,95.80
2017-08-28T19:39:48.285Z,95.80
2017-08-28T19:42:16.876Z,95.50
2017-08-28T19:44:45.389Z,95.60
2017-08-28T19:47:13.287Z,95.60
2017-08-28T19:49:43.039Z,95.70
2017-08-28T19:52:10.889Z,95.60
2017-08-28T19:54:38.630Z,95.70
2017-08-28T19:57:06.398Z,95.80
2017-08-28T19:59:34.162Z,95.90
2017-08-28T20:02:02.973Z,95.90
2017-08-28T20:04:31.993Z,95.90
2017-08-28T20:06:59.721Z,95.80
2017-08-28T20:09:27.511Z,95.70
2017-08-28T20:11:56.449Z,95.90
2017-08-28T20:14:24.052Z,96.00
2017-08-28T20:16:51.925Z,95.80
2017-08-28T20:19:19.601Z,95.90
2017-08-28T20:21:47.312Z,96.10
2017-08-28T20:24:15.767Z,95.90
2017-08-28T20:26:43.849Z,96.00
2017-08-28T20:29:11.551Z,96.10
2017-08-28T20:31:39.132Z,96.20
2017-08-28T20:34:06.764Z,96.20
2017-08-28T20:36:34.382Z,96.40
2017-08-28T20:39:02.017Z,96.50
2017-08-28T20:41:29.664Z,96.60
2017-08-28T20:43:57.357Z,96.50
2017-08-28T20:46:25.463Z,96.50
2017-08-28T20:48:53.139Z,96.40
2017-08-28T20:51:20.694Z,96.40
2017-08-28T20:53:48.277Z,96.50
2017-08-28T20:56:16.069Z,96.50
2017-08-28T20:58:44.521Z,96.60
2017-08-28T21:01:12.275Z,96.50
2017-08-28T21:03:39.853Z,96.60
2017-08-28T21:06:07.442Z,96.60
2017-08-28T21:08:34.997Z,96.70
2017-08-28T21:11:02.601Z,96.70
2017-08-28T21:13:30.921Z,96.70
2017-08-28T21:15:58.523Z,96.60
2017-08-28T21:18:26.314Z,96.60
2017-08-28T21:20:53.863Z,96.50
2017-08-28T21:23:21.406Z,96.50
2017-08-28T21:25:49.539Z,96.60
2017-08-28T21:28:17.095Z,96.70
2017-08-28T21:30:44.619Z,96.60
2017-08-28T21:33:12.195Z,96.50
2017-08-28T21:35:39.753Z,96.20
2017-08-28T21:38:07.309Z,96.20
2017-08-28T21:40:35.063Z,96.30
2017-08-28T21:43:02.637Z,95.90
2017-08-28T21:45:30.205Z,95.90
2017-08-28T21:47:57.833Z,96.10
2017-08-28T21:50:25.433Z,96.10
2017-08-28T21:52:53.041Z,95.80
2017-08-28T21:55:20.621Z,95.80
2017-08-28T21:57:48.200Z,95.70
2017-08-28T22:00:16.571Z,95.70
2017-08-28T22:02:44.322Z,95.70
2017-08-28T22:05:11.969Z,95.80
2017-08-28T22:07:39.534Z,96.00
2017-08-28T22:10:07.151Z,96.20
2017-08-28T22:12:34.709Z,96.50
2017-08-28T22:15:02.257Z,97.10
2017-08-28T22:17:29.943Z,96.90
2017-08-28T22:19:57.554Z,96.70
2017-08-28T22:22:25.080Z,97.00
2017-08-28T22:24:52.829Z,97.10
2017-08-28T22:27:20.414Z,97.20
2017-08-28T22:29:47.961Z,97.10
2017-08-28T22:32:15.593Z,97.20
2017-08-28T22:34:43.126Z,97.60
2017-08-28T22:37:10.700Z,97.40
2017-08-28T22:39:38.315Z,97.30
2017-08-28T22:42:05.870Z,97.30
2017-08-28T22:44:33.420Z,97.10
2017-08-28T22:47:01.094Z,97.00
2017-08-28T22:49:28.661Z,97.20
2017-08-28T22:51:56.210Z,97.30
2017-08-28T22:54:23.818Z,97.90
2017-08-28T22:56:51.378Z,98.10
2017-08-28T22:59:18.940Z,98.10
2017-08-28T23:01:46.478Z,98.10
2017-08-28T23:04:13.983Z,98.20
2017-08-28T23:06:41.547Z,98.20
2017-08-28T23:09:09.115Z,98.10
2017-08-28T23:11:37.507Z,98.20
2017-08-28T23:14:05.098Z,98.20
2017-08-28T23:16:32.697Z,98.10
2017-08-28T23:19:00.199Z,97.90
2017-08-28T23:21:27.744Z,97.80
2017-08-28T23:23:55.360Z,97.70
2017-08-28T23:26:22.883Z,97.90
2017-08-28T23:28:50.476Z,98.00
2017-08-28T23:31:18.092Z,97.90
2017-08-28T23:33:45.644Z,98.00
2017-08-28T23:36:13.179Z,97.80
2017-08-28T23:38:40.931Z,97.80
2017-08-28T23:41:08.454Z,97.70
2017-08-28T23:43:35.993Z,97.70
2017-08-28T23:46:03.588Z,97.70
2017-08-28T23:48:31.111Z,97.70
2017-08-28T23:50:58.669Z,97.90
2017-08-28T23:53:26.285Z,97.80
2017-08-28T23:55:53.845Z,97.70
2017-08-28T23:58:21.408Z,97.60
